首页
METAR-TAF:

METAR-TAF

机场 :

休斯敦, 得克萨斯州, 美国

喬治·布什洲際機場

纬度: 29-59-33N, 经度: 095-21-50W, 海拔: 29米

当前天气观测

该预报发布于9分钟前的04:53 UTC
风速4节,风向
温度 18°C
湿度 64%
气压 1016 hPa
能見度: 16.1公里
散云层高于25000英尺

METAR: KIAH 270453Z 35004KT 10SM SCT250 18/11 A2999 RMK AO2 SLP154 T01780106

时间: 00:02 (05:02 UTC)

预报

该预报发布于1小时和53分钟前的03:09 UTC
预报有效从27日的 03点(UTC)到 28日的 06点(UTC)
风速3节,风向多变
能見度: 10公里
散云层高于25000英尺
从 27日的 1500点(UTC)
风速8节,风向
能見度: 10公里
散云层高于10000英尺
从 28日的 0100点(UTC)
风速3节,风向多变
能見度: 10公里
少量云层高于30000英尺

TAF: KIAH 270309Z 2703/2806 VRB03KT P6SM SCT250 FM271500 35008KT P6SM SCT100 FM280100 VRB03KT P6SM FEW300

超过4000个机场的气象观测和天气预报(METAR&TAF报告)。

可查询的气象台以黄色和红色小点在地图上表示。

将鼠标移到小点上方,可查看气象台名称。

然后点击查看天气观测和预报。

如需切换地图:点击带黑十字的绿色按钮放大地图;点击带横线的绿色按钮缩小地图;或者点击绿色箭头查看邻近地区的地图。


METAR-TAF: